Pays
Station

 

Conditions  météo  pour  Punta Arenas  -  Chili    Chili

  
9 °C
    
 
 

METAR pour Punta Arenas :

SCCI 191100Z VRB02KT 9999 BKN014 SCT025 09/06 Q1010 NOSIG

 

Voici le bulletin pour Punta Arenas - Chili.
 
Le bulletin a été fait il y a 28 minutes, à 11:00 UTC .
Le vent soufflait à la vitesse de 1.0 mètres par seconde de direction variable.
 
La température était de 9 °C, avec un point de rosée à 6 °C.
La pression atmosphérique était de 1010 hPa.
L'humidité relative était de 81.5%.
 
Il y avait 5 à 7/8ème de nébulosité à une hauteur de 427 mètres et 3 à 4/8ème de nébulosité à une hauteur de 762 mètres.
 
La visibilité globale était de supérieure à 10 kilomètres.
 

 
 
 

Pays :   A   B   C   D   E   F   G   H   I   J   K   L   M   N   O   P   Q   R   S   T   U   V   W   Y   Z

 

Partenaires :  Info Météo avec Met'info
Météo Marine avec MeteoMarine.net
Infos Site  |  Infos Légales  |  Crédits  |  Confidentialité
Contactez-nous  |  Ajouter aux favoris
© 2013-2018 METAR - Tous droits réservés